Time;durP1;ratioP1;P1;durP2;ratioP2;P2;SDS_P1;SDS_P2;PMS_P1;PMS_P2;Temp;Humidity;BMP_temperature;BMP_pressure;BME280_temperature;BME280_humidity;BME280_pressure;Samples;Min_cycle;Max_cycle;Signal;HPM_P1;HPM_P2
2021/12/24 00:02:01;;;;;;;;;;;;;;;;;;4881622;29;19999;-73
2021/12/24 00:04:26;;;;;;;;;;;;;;;;;;4881380;29;20356;-73
2021/12/24 00:06:52;;;;;;;;;;;;;;;;;;4881522;29;20019;-72
2021/12/24 00:09:23;;;;;;;;;;;;;;;;;;4863669;29;19908;-73
2021/12/24 00:11:49;;;;;;;;;;;;;;;;;;4881180;29;19946;-72
2021/12/24 00:14:15;;;;;;;;;;;;;;;;;;4881956;29;19908;-73
2021/12/24 00:16:47;;;;;;;;;;;;;;;;;;4881309;29;20296;-73
2021/12/24 00:35:33;;;;;;;;;;;;;;;;;;4880923;29;19918;-73
2021/12/24 00:38:03;;;;;;;;;;;;;;;;;;4881009;29;19908;-72
2021/12/24 00:40:29;;;;;;;;;;;;;;;;;;4879167;29;19959;-72
2021/12/24 00:42:55;;;;;;;;;;;;;;;;;;4863607;29;19916;-72
2021/12/24 00:45:21;;;;;;;;;;;;;;;;;;4880729;29;20341;-72
2021/12/24 00:47:46;;;;;;;;;;;;;;;;;;4880024;29;19922;-72
2021/12/24 00:50:15;;;;;;;;;;;;;;;;;;4880922;29;19919;-72
2021/12/24 00:52:58;;;;;;;;;;;;;;;;;;4880062;29;19908;-72
2021/12/24 00:55:24;;;;;;;;;;;;;;;;;;4880481;29;20361;-72
2021/12/24 00:57:50;;;;;;;;;;;;;;;;;;4880652;29;19955;-73
2021/12/24 01:00:16;;;;;;;;;;;;;;;;;;4880833;29;19998;-73
2021/12/24 01:02:42;;;;;;;;;;;;;;;;;;4857517;29;19912;-73
2021/12/24 01:05:08;;;;;;;;;;;;;;;;;;4880248;29;19918;-73
2021/12/24 01:07:34;;;;;;;;;;;;;;;;;;4880014;29;20300;-72
2021/12/24 01:10:00;;;;;;;;;;;;;;;;;;4863084;29;19919;-72
2021/12/24 01:12:26;;;;;;;;;;;;;;;;;;4880227;29;19911;-73
2021/12/24 01:14:52;;;;;;;;;;;;;;;;;;4880107;29;20427;-73
2021/12/24 01:19:46;;;;;;;;;;;;;;;;;;4880382;29;19996;-72
2021/12/24 01:38:32;;;;;;;;;;;;;;;;;;4880136;29;19955;-73
2021/12/24 01:43:27;;;;;;;;;;;;;;;;;;4862152;29;19920;-72
2021/12/24 01:45:53;;;;;;;;;;;;;;;;;;4860872;29;19908;-72
2021/12/24 01:48:19;;;;;;;;;;;;;;;;;;4865784;29;19919;-73
2021/12/24 01:50:48;;;;;;;;;;;;;;;;;;4879661;29;19955;-73
2021/12/24 01:53:14;;;;;;;;;;;;;;;;;;4878772;29;19908;-72
2021/12/24 01:55:40;;;;;;;;;;;;;;;;;;4879615;29;20119;-72
2021/12/24 01:58:06;;;;;;;;;;;;;;;;;;4879410;29;20381;-73
2021/12/24 02:00:32;;;;;;;;;;;;;;;;;;4879682;29;19907;-73
2021/12/24 02:02:57;;;;;;;;;;;;;;;;;;4879382;29;20030;-73
2021/12/24 02:05:23;;;;;;;;;;;;;;;;;;4868148;29;19916;-73
2021/12/24 02:07:49;;;;;;;;;;;;;;;;;;4861444;29;19908;-72
2021/12/24 02:10:15;;;;;;;;;;;;;;;;;;4879457;29;19907;-73
2021/12/24 02:12:41;;;;;;;;;;;;;;;;;;4879267;29;19911;-73
2021/12/24 02:15:10;;;;;;;;;;;;;;;;;;4879200;29;19908;-73
2021/12/24 02:28:40;;;;;;;;;;;;;;;;;;4840042;29;19996;-73
2021/12/24 02:31:06;;;;;;;;;;;;;;;;;;4839925;29;20428;-72
2021/12/24 02:33:32;;;;;;;;;;;;;;;;;;4839638;29;19947;-73
2021/12/24 02:35:58;;;;;;;;;;;;;;;;;;4839948;29;19909;-72
2021/12/24 02:38:24;;;;;;;;;;;;;;;;;;4846411;29;19912;-73
2021/12/24 02:40:50;;;;;;;;;;;;;;;;;;4858668;29;19915;-72
2021/12/24 02:43:19;;;;;;;;;;;;;;;;;;4858267;29;20324;-73
2021/12/24 02:45:47;;;;;;;;;;;;;;;;;;4858194;29;19951;-72
2021/12/24 02:56:16;;;;;;;;;;;;;;;;;;4840707;29;20054;-73
2021/12/24 02:58:42;;;;;;;;;;;;;;;;;;4865364;29;19932;-73
2021/12/24 03:01:08;;;;;;;;;;;;;;;;;;4874877;29;19916;-72
2021/12/24 03:03:34;;;;;;;;;;;;;;;;;;4878568;29;19919;-72
2021/12/24 03:06:00;;;;;;;;;;;;;;;;;;4878409;29;19912;-72
2021/12/24 03:08:26;;;;;;;;;;;;;;;;;;4878773;29;19908;-72
2021/12/24 03:10:54;;;;;;;;;;;;;;;;;;4878634;29;19907;-73
2021/12/24 03:13:20;;;;;;;;;;;;;;;;;;4860877;29;20299;-73
2021/12/24 03:15:50;;;;;;;;;;;;;;;;;;4878210;29;19908;-73
2021/12/24 03:18:23;;;;;;;;;;;;;;;;;;4877884;29;20353;-72
2021/12/24 03:20:49;;;;;;;;;;;;;;;;;;4878300;29;19916;-72
2021/12/24 03:26:10;;;;;;;;;;;;;;;;;;4866112;29;20391;-72
2021/12/24 03:28:36;;;;;;;;;;;;;;;;;;4878588;29;19951;-72
2021/12/24 03:31:02;;;;;;;;;;;;;;;;;;4877963;29;20368;-72
2021/12/24 03:33:28;;;;;;;;;;;;;;;;;;4877802;29;19991;-73
2021/12/24 03:35:53;;;;;;;;;;;;;;;;;;4878286;29;20338;-73
2021/12/24 03:38:19;;;;;;;;;;;;;;;;;;4877444;29;19947;-73
2021/12/24 03:40:45;;;;;;;;;;;;;;;;;;4878840;29;19992;-73
2021/12/24 03:43:11;;;;;;;;;;;;;;;;;;4878090;29;19911;-72
2021/12/24 03:45:47;;;;;;;;;;;;;;;;;;4878137;29;19923;-73
2021/12/24 03:48:18;;;;;;;;;;;;;;;;;;4877962;29;20368;-73
2021/12/24 03:56:15;;;;;;;;;;;;;;;;;;4802732;29;19909;-73
2021/12/24 03:58:41;;;;;;;;;;;;;;;;;;4803190;29;19909;-73
2021/12/24 04:01:06;;;;;;;;;;;;;;;;;;4802273;29;19909;-73
2021/12/24 04:03:32;;;;;;;;;;;;;;;;;;4802815;29;19917;-73
2021/12/24 04:05:58;;;;;;;;;;;;;;;;;;4802648;29;19917;-73
2021/12/24 04:08:24;;;;;;;;;;;;;;;;;;4783376;29;19963;-73
2021/12/24 04:10:50;;;;;;;;;;;;;;;;;;4784379;29;19914;-72
2021/12/24 04:13:16;;;;;;;;;;;;;;;;;;4784488;30;19910;-73
2021/12/24 04:15:42;;;;;;;;;;;;;;;;;;4785716;29;19956;-73
2021/12/24 04:19:13;;;;;;;;;;;;;;;;;;4787751;30;19948;-72
2021/12/24 04:26:23;;;;;;;;;;;;;;;;;;4787495;29;19920;-72
2021/12/24 04:28:48;;;;;;;;;;;;;;;;;;4786779;29;19914;-72
2021/12/24 04:31:15;;;;;;;;;;;;;;;;;;4787050;29;19920;-72
2021/12/24 04:33:46;;;;;;;;;;;;;;;;;;4875795;29;19908;-72
2021/12/24 05:03:31;;;;;;;;;;;;;;;;;;4822862;29;19919;-73
2021/12/24 05:06:29;;;;;;;;;;;;;;;;;;4823176;29;19916;-74
2021/12/24 05:08:59;;;;;;;;;;;;;;;;;;4822830;29;20263;-73
2021/12/24 05:11:24;;;;;;;;;;;;;;;;;;4821260;29;19913;-73
2021/12/24 05:13:50;;;;;;;;;;;;;;;;;;4804830;29;19916;-73
2021/12/24 05:21:32;;;;;;;;;;;;;;;;;;4823147;29;19940;-73
2021/12/24 05:21:34;;;;;;;;;;;;;;;;;;4822851;29;19916;-74
2021/12/24 05:23:59;;;;;;;;;;;;;;;;;;4823154;29;19913;-74
2021/12/24 05:26:25;;;;;;;;;;;;;;;;;;4822683;29;19969;-74
2021/12/24 05:28:51;;;;;;;;;;;;;;;;;;4843546;29;20284;-73
2021/12/24 05:31:17;;;;;;;;;;;;;;;;;;4879470;29;19926;-73
2021/12/24 05:33:43;;;;;;;;;;;;;;;;;;4879582;29;19919;-74
2021/12/24 05:36:09;;;;;;;;;;;;;;;;;;4880019;29;19914;-74
2021/12/24 05:38:35;;;;;;;;;;;;;;;;;;4863156;29;19962;-74
2021/12/24 05:41:01;;;;;;;;;;;;;;;;;;4879945;29;19914;-73
2021/12/24 05:43:27;;;;;;;;;;;;;;;;;;4878836;29;19915;-73
2021/12/24 05:45:53;;;;;;;;;;;;;;;;;;4879917;29;19954;-72
2021/12/24 05:48:19;;;;;;;;;;;;;;;;;;4879366;29;20006;-73
2021/12/24 05:50:44;;;;;;;;;;;;;;;;;;4879582;29;19915;-74
2021/12/24 05:53:10;;;;;;;;;;;;;;;;;;4879854;29;19918;-74
2021/12/24 05:55:36;;;;;;;;;;;;;;;;;;4879843;29;19907;-74
2021/12/24 05:58:06;;;;;;;;;;;;;;;;;;4879294;29;19904;-73
2021/12/24 06:00:32;;;;;;;;;;;;;;;;;;4879298;29;19911;-74
2021/12/24 06:02:57;;;;;;;;;;;;;;;;;;4879327;29;20397;-74
2021/12/24 06:05:23;;;;;;;;;;;;;;;;;;4879439;29;19915;-74
2021/12/24 06:07:49;;;;;;;;;;;;;;;;;;4879617;29;20039;-74
2021/12/24 06:10:15;;;;;;;;;;;;;;;;;;4879301;29;20010;-73
2021/12/24 06:12:41;;;;;;;;;;;;;;;;;;4879411;29;19908;-74
2021/12/24 06:15:08;;;;;;;;;;;;;;;;;;4879156;29;19907;-74
2021/12/24 06:17:37;;;;;;;;;;;;;;;;;;4879242;29;19951;-74
2021/12/24 06:20:03;;;;;;;;;;;;;;;;;;4879265;29;20076;-74
2021/12/24 06:22:29;;;;;;;;;;;;;;;;;;4879033;29;20389;-74
2021/12/24 06:24:55;;;;;;;;;;;;;;;;;;4878768;29;20014;-74
2021/12/24 06:27:21;;;;;;;;;;;;;;;;;;4861916;29;19918;-73
2021/12/24 06:29:47;;;;;;;;;;;;;;;;;;4879017;29;19908;-74
2021/12/24 06:32:13;;;;;;;;;;;;;;;;;;4879121;29;20384;-73
2021/12/24 06:34:39;;;;;;;;;;;;;;;;;;4878776;29;19951;-74
2021/12/24 06:37:04;;;;;;;;;;;;;;;;;;4878912;29;19903;-74
2021/12/24 06:39:30;;;;;;;;;;;;;;;;;;4878419;29;19914;-74
2021/12/24 06:41:56;;;;;;;;;;;;;;;;;;4877616;29;19911;-74
2021/12/24 06:44:22;;;;;;;;;;;;;;;;;;4878456;29;19951;-74
2021/12/24 06:46:48;;;;;;;;;;;;;;;;;;4878926;29;19955;-74
2021/12/24 06:49:14;;;;;;;;;;;;;;;;;;4878384;29;19968;-74
2021/12/24 06:51:40;;;;;;;;;;;;;;;;;;4878948;29;20360;-74
2021/12/24 06:54:06;;;;;;;;;;;;;;;;;;4878566;29;20375;-74
2021/12/24 06:56:32;;;;;;;;;;;;;;;;;;4878149;29;19912;-74
2021/12/24 06:58:58;;;;;;;;;;;;;;;;;;4878560;29;20288;-74
2021/12/24 07:01:24;;;;;;;;;;;;;;;;;;4878179;29;19916;-73
2021/12/24 07:03:50;;;;;;;;;;;;;;;;;;4878295;29;20400;-73
2021/12/24 07:06:15;;;;;;;;;;;;;;;;;;4878487;29;19998;-73
2021/12/24 07:08:41;;;;;;;;;;;;;;;;;;4877883;29;19955;-73
2021/12/24 07:11:07;;;;;;;;;;;;;;;;;;4878817;29;20002;-74
2021/12/24 07:13:33;;;;;;;;;;;;;;;;;;4878402;29;19907;-75
2021/12/24 07:15:59;;;;;;;;;;;;;;;;;;4878491;29;20289;-74
2021/12/24 07:18:25;;;;;;;;;;;;;;;;;;4878321;29;19939;-73
2021/12/24 07:20:51;;;;;;;;;;;;;;;;;;4876734;29;19918;-74
2021/12/24 07:23:17;;;;;;;;;;;;;;;;;;4870535;29;19915;-74
2021/12/24 07:25:43;;;;;;;;;;;;;;;;;;4869163;29;19919;-74
2021/12/24 07:28:08;;;;;;;;;;;;;;;;;;4876691;29;19911;-74
2021/12/24 07:30:34;;;;;;;;;;;;;;;;;;4875453;29;20376;-74
2021/12/24 07:33:00;;;;;;;;;;;;;;;;;;4869606;29;19953;-74
2021/12/24 07:35:26;;;;;;;;;;;;;;;;;;4860176;29;19976;-76
2021/12/24 07:37:52;;;;;;;;;;;;;;;;;;4853948;29;19914;-76
2021/12/24 07:40:19;;;;;;;;;;;;;;;;;;4877930;29;19908;-74
2021/12/24 07:42:44;;;;;;;;;;;;;;;;;;4873818;29;20145;-73
2021/12/24 07:45:10;;;;;;;;;;;;;;;;;;4865633;29;20376;-73
2021/12/24 07:47:40;;;;;;;;;;;;;;;;;;4877815;29;20392;-75
2021/12/24 07:50:18;;;;;;;;;;;;;;;;;;4878880;29;20006;-74
2021/12/24 07:52:44;;;;;;;;;;;;;;;;;;4880329;29;20432;-75
2021/12/24 07:55:10;;;;;;;;;;;;;;;;;;4882359;29;19908;-74
2021/12/24 07:57:36;;;;;;;;;;;;;;;;;;4880974;29;19915;-74
2021/12/24 08:00:02;;;;;;;;;;;;;;;;;;4881620;29;20388;-74
2021/12/24 08:02:29;;;;;;;;;;;;;;;;;;4881022;29;19922;-74
2021/12/24 08:04:56;;;;;;;;;;;;;;;;;;4871150;29;19912;-74
2021/12/24 08:07:22;;;;;;;;;;;;;;;;;;4881112;29;19914;-74
2021/12/24 08:09:48;;;;;;;;;;;;;;;;;;4881693;29;19911;-74
2021/12/24 08:12:14;;;;;;;;;;;;;;;;;;4881895;29;19908;-74
2021/12/24 08:14:40;;;;;;;;;;;;;;;;;;4863980;29;19922;-74
2021/12/24 08:17:06;;;;;;;;;;;;;;;;;;4885467;29;20318;-73
2021/12/24 08:19:32;;;;;;;;;;;;;;;;;;4879312;29;19915;-73
2021/12/24 08:21:58;;;;;;;;;;;;;;;;;;4871282;29;20277;-73
2021/12/24 08:24:24;;;;;;;;;;;;;;;;;;4867471;29;19915;-73
2021/12/24 08:26:51;;;;;;;;;;;;;;;;;;4864796;29;19908;-74
2021/12/24 08:29:17;;;;;;;;;;;;;;;;;;4881779;29;19907;-73
2021/12/24 08:31:42;;;;;;;;;;;;;;;;;;4881670;29;19930;-77
2021/12/24 08:34:08;;;;;;;;;;;;;;;;;;4864814;29;19915;-74
2021/12/24 08:36:35;;;;;;;;;;;;;;;;;;4880383;29;19927;-74
2021/12/24 08:39:01;;;;;;;;;;;;;;;;;;4880071;29;19907;-73
2021/12/24 08:41:27;;;;;;;;;;;;;;;;;;4864470;29;20363;-73
2021/12/24 08:43:53;;;;;;;;;;;;;;;;;;4880837;29;19911;-73
2021/12/24 08:46:18;;;;;;;;;;;;;;;;;;4880264;29;19946;-74
